Station Historical Data
Daily Summary for September 16, 2017 Units:  English    Metric   Both
« Previous Day
Next Day »
Daily Weekly Monthly Yearly Custom
  High: Low: Average:
Temperature: 87.5 °F 64.2 °F 73.1 °F
Dew Point: 68.8 °F 62.1 °F 65 °F
Humidity: 93% 47% 78%
Wind Speed: 7.0mph 1.0mph 3.1mph
Wind Gust: 7.0mph - -
Wind- - ENE
Pressure: 30.17 in 30.07 in -
Precipitation: 0.00 in    
Historical Graphs
 
 
Tabular Data for September 16, 2017
Time Temperature Dew Point Pressure Wind Wind Speed Wind Gust Humidity Rainfall Rate (Hourly) Conditions
00:00 67.8 °F 64.4 °F 30.11 in North 3.0 mph 3.0 mph 89% 0.00 in BKN
00:05 67.7 °F 64.7 °F 30.11 in North 3.0 mph 3.0 mph 90% 0.00 in BKN
00:10 67.6 °F 64.6 °F 30.10 in North 3.0 mph 3.0 mph 90% 0.00 in BKN
00:15 67.6 °F 64.6 °F 30.11 in North 3.0 mph 3.0 mph 90% 0.00 in CLR
00:20 67.6 °F 64.6 °F 30.11 in North 3.0 mph 3.0 mph 90% 0.00 in CLR
00:25 67.6 °F 64.6 °F 30.11 in North 3.0 mph 3.0 mph 90% 0.00 in CLR
00:30 67.5 °F 64.5 °F 30.11 in North 3.0 mph 3.0 mph 90% 0.00 in CLR
00:40 67.5 °F 64.8 °F 30.11 in North 3.0 mph 3.0 mph 91% 0.00 in CLR
00:45 67.6 °F 64.9 °F 30.11 in North 3.0 mph 3.0 mph 91% 0.00 in CLR
00:50 67.5 °F 64.8 °F 30.11 in North 3.0 mph 3.0 mph 91% 0.00 in CLR
00:55 67.6 °F 64.9 °F 30.10 in North 3.0 mph 3.0 mph 91% 0.00 in CLR
01:00 67.6 °F 64.9 °F 30.11 in North 3.0 mph 3.0 mph 91% 0.00 in CLR
01:05 67.5 °F 64.5 °F 30.10 in North 3.0 mph 3.0 mph 90% 0.00 in CLR
01:10 67.4 °F 64.4 °F 30.11 in North 3.0 mph 3.0 mph 90% 0.00 in CLR
01:15 67.3 °F 64.6 °F 30.11 in North 3.0 mph 3.0 mph 91% 0.00 in CLR
01:20 67.2 °F 64.5 °F 30.10 in North 3.0 mph 3.0 mph 91% 0.00 in CLR
01:25 67.2 °F 64.5 °F 30.10 in North 3.0 mph 3.0 mph 91% 0.00 in CLR
01:30 67.2 °F 64.5 °F 30.10 in North 3.0 mph 3.0 mph 91% 0.00 in CLR
01:35 67.1 °F 64.4 °F 30.10 in North 3.0 mph 3.0 mph 91% 0.00 in CLR
01:40 67.1 °F 64.4 °F 30.10 in North 3.0 mph 3.0 mph 91% 0.00 in CLR
01:45 66.9 °F 64.2 °F 30.10 in North 3.0 mph 3.0 mph 91% 0.00 in CLR
01:50 66.8 °F 64.1 °F 30.10 in North 3.0 mph 3.0 mph 91% 0.00 in CLR
01:55 66.7 °F 64.0 °F 30.10 in North 3.0 mph 3.0 mph 91% 0.00 in CLR
02:00 66.6 °F 63.9 °F 30.10 in North 3.0 mph 3.0 mph 91% 0.00 in CLR
02:05 66.6 °F 63.9 °F 30.10 in North 3.0 mph 3.0 mph 91% 0.00 in CLR
02:10 66.5 °F 63.8 °F 30.10 in North 3.0 mph 3.0 mph 91% 0.00 in CLR
02:15 66.4 °F 63.7 °F 30.10 in North 3.0 mph 3.0 mph 91% 0.00 in CLR
02:20 66.3 °F 63.6 °F 30.10 in North 3.0 mph 3.0 mph 91% 0.00 in CLR
02:25 66.2 °F 63.5 °F 30.10 in North 3.0 mph 3.0 mph 91% 0.00 in CLR
02:30 66.2 °F 63.5 °F 30.10 in North 3.0 mph 3.0 mph 91% 0.00 in CLR
02:35 66.1 °F 63.4 °F 30.10 in North 3.0 mph 3.0 mph 91% 0.00 in CLR
02:40 66.0 °F 63.3 °F 30.10 in North 3.0 mph 3.0 mph 91% 0.00 in CLR
02:45 66.0 °F 63.6 °F 30.10 in North 3.0 mph 3.0 mph 92% 0.00 in CLR
02:55 66.2 °F 63.8 °F 30.10 in North 3.0 mph 3.0 mph 92% 0.00 in CLR
03:00 66.1 °F 63.7 °F 30.10 in North 3.0 mph 3.0 mph 92% 0.00 in CLR
03:05 66.0 °F 63.6 °F 30.10 in North 3.0 mph 3.0 mph 92% 0.00 in CLR
03:10 66.0 °F 63.6 °F 30.10 in North 3.0 mph 3.0 mph 92% 0.00 in CLR
03:20 66.0 °F 63.6 °F 30.09 in North 3.0 mph 3.0 mph 92% 0.00 in CLR
03:25 66.0 °F 63.6 °F 30.09 in North 3.0 mph 3.0 mph 92% 0.00 in CLR
03:30 66.1 °F 63.7 °F 30.09 in North 3.0 mph 3.0 mph 92% 0.00 in CLR
03:35 66.0 °F 63.6 °F 30.09 in North 3.0 mph 3.0 mph 92% 0.00 in CLR
03:40 65.9 °F 63.5 °F 30.09 in North 3.0 mph 3.0 mph 92% 0.00 in CLR
03:45 65.8 °F 63.4 °F 30.09 in North 3.0 mph 3.0 mph 92% 0.00 in CLR
03:50 65.8 °F 63.4 °F 30.09 in North 3.0 mph 3.0 mph 92% 0.00 in CLR
03:55 65.8 °F 63.4 °F 30.09 in North 3.0 mph 3.0 mph 92% 0.00 in CLR
04:00 65.8 °F 63.4 °F 30.09 in North 3.0 mph 3.0 mph 92% 0.00 in CLR
04:10 65.7 °F 63.3 °F 30.09 in North 3.0 mph 3.0 mph 92% 0.00 in CLR
04:15 65.8 °F 63.7 °F 30.09 in North 3.0 mph 3.0 mph 93% 0.00 in CLR
04:20 65.8 °F 63.7 °F 30.09 in North 3.0 mph 3.0 mph 93% 0.00 in CLR
04:25 65.7 °F 63.3 °F 30.10 in North 3.0 mph 3.0 mph 92% 0.00 in CLR
04:30 65.7 °F 63.6 °F 30.10 in North 3.0 mph 3.0 mph 93% 0.00 in CLR
04:35 65.7 °F 63.6 °F 30.10 in North 3.0 mph 3.0 mph 93% 0.00 in CLR
04:40 65.6 °F 63.5 °F 30.10 in North 3.0 mph 3.0 mph 93% 0.00 in CLR
04:45 65.6 °F 63.5 °F 30.10 in North 3.0 mph 3.0 mph 93% 0.00 in CLR
04:50 65.6 °F 63.5 °F 30.10 in North 3.0 mph 3.0 mph 93% 0.00 in CLR
04:55 65.5 °F 63.4 °F 30.10 in North 3.0 mph 3.0 mph 93% 0.00 in CLR
05:00 65.4 °F 63.0 °F 30.10 in North 3.0 mph 3.0 mph 92% 0.00 in CLR
05:05 65.3 °F 62.9 °F 30.10 in North 3.0 mph 3.0 mph 92% 0.00 in CLR
05:10 65.3 °F 63.2 °F 30.10 in North 3.0 mph 3.0 mph 93% 0.00 in CLR
05:15 65.3 °F 63.2 °F 30.10 in North 3.0 mph 3.0 mph 93% 0.00 in CLR
05:20 65.2 °F 63.1 °F 30.10 in North 3.0 mph 3.0 mph 93% 0.00 in CLR
05:25 65.2 °F 63.1 °F 30.10 in North 3.0 mph 3.0 mph 93% 0.00 in CLR
05:30 65.1 °F 63.0 °F 30.10 in North 3.0 mph 3.0 mph 93% 0.00 in CLR
05:40 65.2 °F 63.1 °F 30.10 in North 3.0 mph 3.0 mph 93% 0.00 in CLR
05:45 65.2 °F 63.1 °F 30.11 in North 3.0 mph 3.0 mph 93% 0.00 in CLR
06:00 64.9 °F 62.8 °F 30.11 in North 3.0 mph 3.0 mph 93% 0.00 in CLR
06:10 64.6 °F 62.2 °F 30.11 in North 3.0 mph 3.0 mph 92% 0.00 in CLR
06:15 64.5 °F 62.4 °F 30.12 in North 3.0 mph 3.0 mph 93% 0.00 in CLR
06:20 64.5 °F 62.4 °F 30.12 in North 3.0 mph 3.0 mph 93% 0.00 in CLR
06:25 64.6 °F 62.5 °F 30.12 in North 3.0 mph 3.0 mph 93% 0.00 in CLR
06:30 64.6 °F 62.5 °F 30.12 in North 3.0 mph 3.0 mph 93% 0.00 in CLR
06:40 64.5 °F 62.4 °F 30.13 in North 3.0 mph 3.0 mph 93% 0.00 in CLR
06:45 64.5 °F 62.4 °F 30.13 in North 3.0 mph 3.0 mph 93% 0.00 in CLR
06:50 64.4 °F 62.3 °F 30.13 in North 3.0 mph 3.0 mph 93% 0.00 in CLR
06:55 64.4 °F 62.3 °F 30.13 in North 3.0 mph 3.0 mph 93% 0.00 in CLR
07:00 64.3 °F 62.3 °F 30.14 in North 3.0 mph 3.0 mph 93% 0.00 in CLR
07:10 64.3 °F 62.2 °F 30.14 in North 3.0 mph 3.0 mph 93% 0.00 in CLR
07:15 64.3 °F 62.2 °F 30.14 in North 3.0 mph 3.0 mph 93% 0.00 in FEW
07:20 64.3 °F 62.2 °F 30.14 in North 3.0 mph 3.0 mph 93% 0.00 in FEW
07:25 64.2 °F 62.1 °F 30.14 in North 3.0 mph 3.0 mph 93% 0.00 in FEW
07:30 64.2 °F 62.2 °F 30.15 in North 3.0 mph 3.0 mph 93% 0.00 in FEW
07:35 64.2 °F 62.1 °F 30.15 in North 3.0 mph 3.0 mph 93% 0.00 in FEW
07:40 64.2 °F 62.1 °F 30.15 in North 3.0 mph 3.0 mph 93% 0.00 in FEW
07:45 64.2 °F 62.1 °F 30.15 in North 3.0 mph 3.0 mph 93% 0.00 in FEW
07:50 64.3 °F 62.2 °F 30.15 in North 3.0 mph 3.0 mph 93% 0.00 in FEW
07:55 64.5 °F 62.4 °F 30.15 in North 3.0 mph 3.0 mph 93% 0.00 in FEW
08:00 64.6 °F 62.5 °F 30.15 in North 3.0 mph 3.0 mph 93% 0.00 in FEW
08:05 64.7 °F 62.6 °F 30.15 in North 3.0 mph 3.0 mph 93% 0.00 in FEW
08:10 64.7 °F 62.6 °F 30.15 in North 3.0 mph 3.0 mph 93% 0.00 in FEW
08:15 64.8 °F 62.7 °F 30.15 in NE 1.0 mph 3.0 mph 93% 0.00 in FEW
08:20 64.9 °F 62.8 °F 30.15 in ENE 1.0 mph 1.0 mph 93% 0.00 in FEW
08:25 65.0 °F 62.9 °F 30.15 in ENE 1.0 mph 1.0 mph 93% 0.00 in FEW
08:30 65.2 °F 63.1 °F 30.15 in ENE 1.0 mph 1.0 mph 93% 0.00 in FEW
08:35 65.3 °F 63.2 °F 30.15 in ENE 1.0 mph 1.0 mph 93% 0.00 in FEW
08:40 65.5 °F 63.4 °F 30.15 in ENE 1.0 mph 1.0 mph 93% 0.00 in FEW
08:45 65.7 °F 63.7 °F 30.16 in ENE 1.0 mph 1.0 mph 93% 0.00 in FEW
08:50 66.0 °F 63.9 °F 30.16 in ENE 1.0 mph 1.0 mph 93% 0.00 in FEW
08:55 66.3 °F 64.2 °F 30.16 in ENE 1.0 mph 1.0 mph 93% 0.00 in FEW
09:00 66.7 °F 64.3 °F 30.16 in ENE 1.0 mph 1.0 mph 92% 0.00 in FEW
09:05 67.0 °F 64.3 °F 30.16 in ENE 1.0 mph 1.0 mph 91% 0.00 in FEW
09:10 67.4 °F 64.7 °F 30.16 in ENE 1.0 mph 1.0 mph 91% 0.00 in FEW
09:15 67.8 °F 64.8 °F 30.16 in ENE 1.0 mph 1.0 mph 90% 0.00 in FEW
09:20 68.2 °F 64.5 °F 30.16 in ENE 1.0 mph 1.0 mph 88% 0.00 in FEW
09:25 68.6 °F 64.9 °F 30.16 in ENE 1.0 mph 1.0 mph 88% 0.00 in FEW
09:30 69.1 °F 65.0 °F 30.16 in ENE 1.0 mph 1.0 mph 87% 0.00 in FEW
09:40 69.9 °F 65.1 °F 30.16 in ENE 1.0 mph 1.0 mph 85% 0.00 in FEW
09:45 70.2 °F 65.5 °F 30.16 in ENE 1.0 mph 1.0 mph 85% 0.00 in FEW
09:50 70.6 °F 65.5 °F 30.16 in ENE 1.0 mph 1.0 mph 84% 0.00 in FEW
09:55 70.9 °F 66.2 °F 30.16 in ENE 1.0 mph 1.0 mph 85% 0.00 in FEW
10:00 71.2 °F 66.1 °F 30.16 in ENE 1.0 mph 1.0 mph 84% 0.00 in FEW
10:10 72.1 °F 65.5 °F 30.17 in ENE 1.0 mph 1.0 mph 80% 0.00 in FEW
10:15 72.5 °F 66.3 °F 30.16 in NE 5.0 mph 5.0 mph 81% 0.00 in FEW
10:20 72.9 °F 66.3 °F 30.17 in NE 5.0 mph 5.0 mph 80% 0.00 in FEW
10:25 73.2 °F 66.6 °F 30.17 in NE 5.0 mph 5.0 mph 80% 0.00 in FEW
10:30 73.5 °F 65.8 °F 30.17 in NE 5.0 mph 5.0 mph 77% 0.00 in FEW
10:35 73.8 °F 65.8 °F 30.17 in NE 5.0 mph 5.0 mph 76% 0.00 in FEW
10:40 74.2 °F 66.1 °F 30.17 in NE 5.0 mph 5.0 mph 76% 0.00 in FEW
10:45 74.8 °F 66.0 °F 30.17 in NE 5.0 mph 5.0 mph 74% 0.00 in FEW
10:50 75.4 °F 65.8 °F 30.17 in NE 5.0 mph 5.0 mph 72% 0.00 in FEW
10:55 76.1 °F 66.4 °F 30.17 in NE 5.0 mph 5.0 mph 72% 0.00 in FEW
11:00 76.4 °F 65.5 °F 30.17 in NE 5.0 mph 5.0 mph 69% 0.00 in FEW
11:05 76.8 °F 66.2 °F 30.17 in NE 5.0 mph 5.0 mph 70% 0.00 in FEW
11:10 77.4 °F 66.9 °F 30.17 in NE 5.0 mph 5.0 mph 70% 0.00 in FEW
11:15 78.5 °F 68.7 °F 30.17 in ENE 3.0 mph 5.0 mph 72% 0.00 in FEW
11:20 79.4 °F 67.0 °F 30.17 in East 3.0 mph 3.0 mph 66% 0.00 in FEW
11:25 80.1 °F 67.3 °F 30.17 in East 3.0 mph 3.0 mph 65% 0.00 in FEW
11:30 80.8 °F 67.5 °F 30.17 in East 3.0 mph 3.0 mph 64% 0.00 in FEW
11:40 80.3 °F 66.6 °F 30.17 in East 3.0 mph 3.0 mph 63% 0.00 in FEW
11:45 80.8 °F 67.5 °F 30.17 in East 3.0 mph 3.0 mph 64% 0.00 in FEW
11:50 81.7 °F 67.4 °F 30.17 in East 3.0 mph 3.0 mph 62% 0.00 in FEW
11:55 81.9 °F 67.1 °F 30.17 in East 3.0 mph 3.0 mph 61% 0.00 in FEW
12:00 81.7 °F 66.5 °F 30.17 in East 3.0 mph 3.0 mph 60% 0.00 in FEW
12:10 83.1 °F 68.8 °F 30.16 in East 3.0 mph 3.0 mph 62% 0.00 in FEW
12:15 83.4 °F 68.1 °F 30.16 in East 7.0 mph 7.0 mph 60% 0.00 in FEW
12:20 83.2 °F 67.4 °F 30.16 in East 7.0 mph 7.0 mph 59% 0.00 in FEW
12:25 83.2 °F 66.4 °F 30.16 in East 7.0 mph 7.0 mph 57% 0.00 in FEW
12:30 83.3 °F 66.0 °F 30.16 in East 7.0 mph 7.0 mph 56% 0.00 in FEW
12:40 84.3 °F 66.9 °F 30.16 in East 7.0 mph 7.0 mph 56% 0.00 in FEW
12:45 84.6 °F 66.6 °F 30.16 in East 7.0 mph 7.0 mph 55% 0.00 in FEW
12:50 84.7 °F 66.7 °F 30.16 in East 7.0 mph 7.0 mph 55% 0.00 in FEW
12:55 84.8 °F 67.4 °F 30.15 in East 7.0 mph 7.0 mph 56% 0.00 in FEW
13:00 84.8 °F 66.3 °F 30.15 in East 7.0 mph 7.0 mph 54% 0.00 in FEW
13:05 85.3 °F 65.7 °F 30.15 in East 7.0 mph 7.0 mph 52% 0.00 in FEW
13:10 84.7 °F 65.7 °F 30.15 in East 7.0 mph 7.0 mph 53% 0.00 in FEW
13:15 84.3 °F 65.8 °F 30.15 in ESE 5.0 mph 7.0 mph 54% 0.00 in SCT
13:20 84.4 °F 65.4 °F 30.14 in SSE 5.0 mph 5.0 mph 53% 0.00 in SCT
13:25 84.5 °F 65.5 °F 30.14 in SSE 5.0 mph 5.0 mph 53% 0.00 in SCT
13:30 85.0 °F 67.0 °F 30.14 in SSE 5.0 mph 5.0 mph 55% 0.00 in SCT
13:40 84.9 °F 63.6 °F 30.14 in SSE 5.0 mph 5.0 mph 49% 0.00 in SCT
13:45 84.2 °F 64.7 °F 30.14 in SSE 5.0 mph 5.0 mph 52% 0.00 in SCT
13:50 84.9 °F 66.4 °F 30.14 in SSE 5.0 mph 5.0 mph 54% 0.00 in SCT
13:55 85.1 °F 65.5 °F 30.13 in SSE 5.0 mph 5.0 mph 52% 0.00 in SCT
14:00 85.7 °F 66.1 °F 30.13 in SSE 5.0 mph 5.0 mph 52% 0.00 in SCT
14:05 86.7 °F 67.0 °F 30.13 in SSE 5.0 mph 5.0 mph 52% 0.00 in SCT
14:10 87.1 °F 67.3 °F 30.13 in SSE 5.0 mph 5.0 mph 52% 0.00 in SCT
14:15 86.9 °F 65.4 °F 30.13 in SSE 2.0 mph 5.0 mph 49% 0.00 in BKN
14:20 87.5 °F 66.6 °F 30.12 in SSE 2.0 mph 2.0 mph 50% 0.00 in BKN
14:25 87.3 °F 64.6 °F 30.12 in SSE 2.0 mph 2.0 mph 47% 0.00 in BKN
14:30 86.4 °F 63.8 °F 30.12 in SSE 2.0 mph 2.0 mph 47% 0.00 in BKN
14:40 86.4 °F 65.6 °F 30.11 in SSE 2.0 mph 2.0 mph 50% 0.00 in BKN
14:45 86.9 °F 66.0 °F 30.11 in SSE 2.0 mph 2.0 mph 50% 0.00 in BKN
14:50 86.7 °F 65.8 °F 30.11 in SSE 2.0 mph 2.0 mph 50% 0.00 in BKN
14:55 86.5 °F 66.3 °F 30.11 in SSE 2.0 mph 2.0 mph 51% 0.00 in BKN
15:00 85.9 °F 65.7 °F 30.10 in SSE 2.0 mph 2.0 mph 51% 0.00 in BKN
15:05 84.4 °F 64.8 °F 30.10 in SSE 2.0 mph 2.0 mph 52% 0.00 in BKN
15:10 83.4 °F 67.1 °F 30.10 in SSE 2.0 mph 2.0 mph 58% 0.00 in BKN
15:20 82.3 °F 65.0 °F 30.10 in SE 3.0 mph 3.0 mph 56% 0.00 in BKN
15:25 82.6 °F 65.8 °F 30.09 in SE 3.0 mph 3.0 mph 57% 0.00 in BKN
15:30 82.8 °F 66.5 °F 30.09 in SE 3.0 mph 3.0 mph 58% 0.00 in BKN
15:40 83.1 °F 64.7 °F 30.09 in SE 3.0 mph 3.0 mph 54% 0.00 in BKN
15:45 83.2 °F 65.4 °F 30.09 in SE 3.0 mph 3.0 mph 55% 0.00 in BKN
15:50 83.1 °F 65.3 °F 30.09 in SE 3.0 mph 3.0 mph 55% 0.00 in BKN
15:55 83.0 °F 64.6 °F 30.09 in SE 3.0 mph 3.0 mph 54% 0.00 in BKN
16:00 83.0 °F 64.6 °F 30.09 in SE 3.0 mph 3.0 mph 54% 0.00 in BKN
16:05 83.0 °F 65.2 °F 30.09 in SE 3.0 mph 3.0 mph 55% 0.00 in BKN
16:10 83.1 °F 64.2 °F 30.09 in SE 3.0 mph 3.0 mph 53% 0.00 in BKN
16:15 83.1 °F 64.2 °F 30.08 in SE 3.0 mph 3.0 mph 53% 0.00 in BKN
16:20 83.1 °F 63.7 °F 30.08 in SSE 3.0 mph 3.0 mph 52% 0.00 in BKN
16:25 83.4 °F 66.1 °F 30.09 in SSE 3.0 mph 3.0 mph 56% 0.00 in BKN
16:30 83.2 °F 66.4 °F 30.09 in SSE 3.0 mph 3.0 mph 57% 0.00 in BKN
16:40 81.9 °F 67.1 °F 30.08 in SSE 3.0 mph 3.0 mph 61% 0.00 in BKN
16:45 81.2 °F 66.9 °F 30.08 in SSE 3.0 mph 3.0 mph 62% 0.00 in BKN
16:50 80.7 °F 66.5 °F 30.08 in SSE 3.0 mph 3.0 mph 62% 0.00 in BKN
16:55 80.8 °F 67.0 °F 30.08 in SSE 3.0 mph 3.0 mph 63% 0.00 in BKN
17:00 81.0 °F 65.8 °F 30.08 in SSE 3.0 mph 3.0 mph 60% 0.00 in BKN
17:05 81.3 °F 66.5 °F 30.08 in SSE 3.0 mph 3.0 mph 61% 0.00 in BKN
17:10 81.4 °F 66.2 °F 30.08 in SSE 3.0 mph 3.0 mph 60% 0.00 in BKN
17:15 81.5 °F 65.3 °F 30.08 in SSE 3.0 mph 3.0 mph 58% 0.00 in SCT
17:20 81.6 °F 65.4 °F 30.08 in SSE 3.0 mph 3.0 mph 58% 0.00 in SCT
17:25 81.4 °F 66.1 °F 30.07 in SSE 3.0 mph 3.0 mph 60% 0.00 in SCT
17:30 81.3 °F 67.0 °F 30.07 in SSE 3.0 mph 3.0 mph 62% 0.00 in SCT
17:35 81.1 °F 66.4 °F 30.07 in SSE 3.0 mph 3.0 mph 61% 0.00 in SCT
17:40 80.9 °F 67.1 °F 30.07 in SSE 3.0 mph 3.0 mph 63% 0.00 in SCT
17:45 80.6 °F 66.9 °F 30.07 in SSE 3.0 mph 3.0 mph 63% 0.00 in SCT
17:50 80.3 °F 66.6 °F 30.07 in SSE 3.0 mph 3.0 mph 63% 0.00 in SCT
17:55 79.9 °F 66.6 °F 30.07 in SSE 3.0 mph 3.0 mph 64% 0.00 in SCT
18:00 79.6 °F 66.3 °F 30.07 in SSE 3.0 mph 3.0 mph 64% 0.00 in SCT
18:05 79.2 °F 66.0 °F 30.07 in SSE 3.0 mph 3.0 mph 64% 0.00 in SCT
18:10 79.0 °F 65.8 °F 30.07 in SSE 3.0 mph 3.0 mph 64% 0.00 in SCT
18:15 78.8 °F 66.0 °F 30.07 in ENE 3.0 mph 3.0 mph 65% 0.00 in SCT
18:20 78.6 °F 65.8 °F 30.07 in NNE 3.0 mph 3.0 mph 65% 0.00 in SCT
18:25 78.5 °F 65.8 °F 30.07 in NNE 3.0 mph 3.0 mph 65% 0.00 in SCT
18:30 78.4 °F 66.1 °F 30.07 in NNE 3.0 mph 3.0 mph 66% 0.00 in SCT
18:40 78.1 °F 65.8 °F 30.07 in NNE 3.0 mph 3.0 mph 66% 0.00 in SCT
18:45 77.8 °F 65.6 °F 30.07 in NNE 3.0 mph 3.0 mph 66% 0.00 in SCT
18:50 77.6 °F 65.3 °F 30.07 in NNE 3.0 mph 3.0 mph 66% 0.00 in SCT
18:55 77.4 °F 65.6 °F 30.07 in NNE 3.0 mph 3.0 mph 67% 0.00 in SCT
19:00 77.2 °F 65.8 °F 30.07 in NNE 3.0 mph 3.0 mph 68% 0.00 in SCT
19:05 77.0 °F 65.6 °F 30.07 in NNE 3.0 mph 3.0 mph 68% 0.00 in SCT
19:10 76.8 °F 65.9 °F 30.08 in NNE 3.0 mph 3.0 mph 69% 0.00 in SCT
19:15 76.6 °F 65.7 °F 30.07 in NNE 3.0 mph 3.0 mph 69% 0.00 in SCT
19:20 76.5 °F 66.0 °F 30.07 in NNE 3.0 mph 3.0 mph 70% 0.00 in SCT
19:25 76.3 °F 65.8 °F 30.07 in NNE 3.0 mph 3.0 mph 70% 0.00 in SCT
19:30 76.1 °F 66.0 °F 30.07 in NNE 3.0 mph 3.0 mph 71% 0.00 in SCT
19:40 75.5 °F 65.8 °F 30.07 in NNE 3.0 mph 3.0 mph 72% 0.00 in SCT
19:45 75.3 °F 65.6 °F 30.07 in NNE 3.0 mph 3.0 mph 72% 0.00 in SCT
19:50 75.1 °F 65.8 °F 30.08 in NNE 3.0 mph 3.0 mph 73% 0.00 in SCT
19:55 74.8 °F 65.6 °F 30.08 in NNE 3.0 mph 3.0 mph 73% 0.00 in SCT
20:00 74.6 °F 65.3 °F 30.08 in NNE 3.0 mph 3.0 mph 73% 0.00 in SCT
20:10 74.1 °F 65.6 °F 30.08 in NNE 3.0 mph 3.0 mph 75% 0.00 in SCT
20:15 73.8 °F 65.8 °F 30.08 in NNE 3.0 mph 3.0 mph 76% 0.00 in SCT
20:20 73.6 °F 65.5 °F 30.08 in NNE 3.0 mph 3.0 mph 76% 0.00 in SCT
20:25 73.4 °F 65.7 °F 30.08 in NNE 3.0 mph 3.0 mph 77% 0.00 in SCT
20:30 73.1 °F 65.5 °F 30.08 in NNE 3.0 mph 3.0 mph 77% 0.00 in SCT
20:40 72.8 °F 65.9 °F 30.09 in NNE 3.0 mph 3.0 mph 79% 0.00 in SCT
20:45 72.6 °F 65.7 °F 30.09 in NNE 3.0 mph 3.0 mph 79% 0.00 in SCT
20:50 72.4 °F 65.5 °F 30.09 in NNE 3.0 mph 3.0 mph 79% 0.00 in SCT
20:55 72.3 °F 65.4 °F 30.09 in NNE 3.0 mph 3.0 mph 79% 0.00 in SCT
21:00 72.2 °F 65.7 °F 30.09 in NNE 3.0 mph 3.0 mph 80% 0.00 in SCT
21:10 71.6 °F 65.8 °F 30.09 in NNE 3.0 mph 3.0 mph 82% 0.00 in SCT
21:15 71.4 °F 65.7 °F 30.09 in NNE 3.0 mph 3.0 mph 82% 0.00 in SCT
21:20 71.5 °F 66.1 °F 30.09 in NNE 3.0 mph 3.0 mph 83% 0.00 in SCT
21:30 71.6 °F 66.2 °F 30.09 in NNE 3.0 mph 3.0 mph 83% 0.00 in SCT
21:35 71.6 °F 66.5 °F 30.09 in NNE 3.0 mph 3.0 mph 84% 0.00 in SCT
21:40 71.7 °F 66.6 °F 30.09 in NNE 3.0 mph 3.0 mph 84% 0.00 in SCT
21:45 71.6 °F 66.5 °F 30.10 in NNE 3.0 mph 3.0 mph 84% 0.00 in SCT
21:50 71.5 °F 66.4 °F 30.10 in NNE 3.0 mph 3.0 mph 84% 0.00 in SCT
21:55 71.3 °F 66.2 °F 30.10 in NNE 3.0 mph 3.0 mph 84% 0.00 in SCT
22:00 71.2 °F 66.5 °F 30.10 in NNE 3.0 mph 3.0 mph 85% 0.00 in SCT
22:05 71.1 °F 66.4 °F 30.11 in NNE 3.0 mph 3.0 mph 85% 0.00 in SCT
22:10 71.0 °F 66.2 °F 30.11 in NNE 3.0 mph 3.0 mph 85% 0.00 in SCT
22:15 70.8 °F 66.4 °F 30.11 in NW 3.0 mph 3.0 mph 86% 0.00 in FEW
22:20 70.7 °F 66.3 °F 30.11 in West 3.0 mph 3.0 mph 86% 0.00 in FEW
22:25 70.5 °F 66.1 °F 30.10 in West 3.0 mph 3.0 mph 86% 0.00 in FEW
22:30 70.4 °F 66.3 °F 30.10 in West 3.0 mph 3.0 mph 87% 0.00 in FEW
22:35 70.2 °F 66.2 °F 30.10 in West 3.0 mph 3.0 mph 87% 0.00 in FEW
22:40 70.2 °F 66.1 °F 30.10 in West 3.0 mph 3.0 mph 87% 0.00 in FEW
22:45 70.1 °F 66.0 °F 30.10 in West 3.0 mph 3.0 mph 87% 0.00 in FEW
22:50 69.9 °F 65.9 °F 30.10 in West 3.0 mph 3.0 mph 87% 0.00 in FEW
22:55 69.8 °F 65.8 °F 30.10 in West 3.0 mph 3.0 mph 87% 0.00 in FEW
23:00 69.7 °F 66.0 °F 30.10 in West 3.0 mph 3.0 mph 88% 0.00 in FEW
23:05 69.6 °F 65.9 °F 30.10 in West 3.0 mph 3.0 mph 88% 0.00 in FEW
23:10 69.5 °F 65.8 °F 30.10 in West 3.0 mph 3.0 mph 88% 0.00 in FEW
23:20 69.4 °F 65.7 °F 30.10 in West 3.0 mph 3.0 mph 88% 0.00 in CLR
23:25 69.3 °F 65.6 °F 30.10 in West 3.0 mph 3.0 mph 88% 0.00 in CLR
23:30 69.2 °F 65.5 °F 30.10 in West 3.0 mph 3.0 mph 88% 0.00 in CLR
23:40 69.1 °F 65.4 °F 30.10 in West 3.0 mph 3.0 mph 88% 0.00 in CLR
23:45 69.0 °F 65.3 °F 30.11 in West 3.0 mph 3.0 mph 88% 0.00 in CLR
23:50 69.0 °F 65.6 °F 30.11 in West 3.0 mph 3.0 mph 89% 0.00 in CLR
23:55 69.0 °F 65.6 °F 30.10 in West 3.0 mph 3.0 mph 89% 0.00 in CLR
Piedmont Bend
Compliments of Weather Underground - 4 mb